Time;durP1;ratioP1;P1;durP2;ratioP2;P2;SDS_P1;SDS_P2;PMS_P1;PMS_P2;Temp;Humidity;BMP_temperature;BMP_pressure;BME280_temperature;BME280_humidity;BME280_pressure;Samples;Min_cycle;Max_cycle;Signal;HPM_P1;HPM_P2
2023/04/22 03:00:15;;;;;;;;;;;18.60;51.90;;;;;;6129429;22;46200;31
2023/04/22 03:02:41;;;;;;;;;;;18.60;51.90;;;;;;4924467;28;46608;-62
2023/04/22 03:05:06;;;;;;;;;;;18.70;52.00;;;;;;4966714;28;45183;-60
2023/04/22 03:07:32;;;;;;;;;;;18.60;51.90;;;;;;4955117;28;45541;-63
2023/04/22 03:09:57;;;;;;;;;;;18.60;51.90;;;;;;4966710;28;45315;-60
2023/04/22 03:12:23;;;;;;;;;;;18.60;51.90;;;;;;4956860;28;45534;-60
2023/04/22 03:14:49;;;;;;;;;;;18.60;51.90;;;;;;4972735;28;45352;-61
2023/04/22 03:17:14;;;;;;;;;;;18.60;51.90;;;;;;4960704;28;45302;-60
2023/04/22 03:19:40;;;;;;;;;;;18.60;51.90;;;;;;4972714;28;44950;-59
2023/04/22 03:22:05;;;;;;;;;;;18.60;51.90;;;;;;4970139;28;45258;-60
2023/04/22 03:24:31;;;;;;;;;;;18.60;52.00;;;;;;4974888;28;45194;-58
2023/04/22 03:26:56;;;;;;;;;;;18.60;52.00;;;;;;4956886;28;45056;-58
2023/04/22 03:29:22;;;;;;;;;;;18.60;52.00;;;;;;4975673;28;45369;-59
2023/04/22 03:31:47;;;;;;;;;;;18.60;52.00;;;;;;4962438;28;45597;-59
2023/04/22 03:34:13;;;;;;;;;;;18.60;52.10;;;;;;4974654;28;46247;-60
2023/04/22 03:36:38;;;;;;;;;;;18.60;52.00;;;;;;4966313;28;45625;-58
2023/04/22 03:39:04;;;;;;;;;;;18.60;52.00;;;;;;4968007;28;45560;-61
2023/04/22 03:41:29;;;;;;;;;;;18.50;52.00;;;;;;4966489;28;46397;-60
2023/04/22 03:43:55;;;;;;;;;;;18.50;52.10;;;;;;4970374;28;46134;-60
2023/04/22 03:46:20;;;;;;;;;;;18.60;52.10;;;;;;4959472;28;45196;-61
2023/04/22 03:48:45;;;;;;;;;;;18.50;52.00;;;;;;4967488;28;45185;-63
2023/04/22 03:51:11;;;;;;;;;;;18.50;52.10;;;;;;4965077;28;44704;-62
2023/04/22 03:53:36;;;;;;;;;;;18.50;52.10;;;;;;4971244;28;46229;-62
2023/04/22 03:56:02;;;;;;;;;;;18.50;52.10;;;;;;4939205;28;45431;-62
2023/04/22 03:58:27;;;;;;;;;;;18.50;52.00;;;;;;4974252;28;45001;-61
2023/04/22 04:00:53;;;;;;;;;;;18.50;52.00;;;;;;4960465;28;45418;-61
2023/04/22 04:03:18;;;;;;;;;;;18.50;52.10;;;;;;4971210;28;46224;-61
2023/04/22 04:05:44;;;;;;;;;;;18.50;52.10;;;;;;4966093;28;44662;-60
2023/04/22 04:08:10;;;;;;;;;;;18.50;52.10;;;;;;4974370;28;44965;-61
2023/04/22 04:10:35;;;;;;;;;;;18.50;52.10;;;;;;4965990;28;45153;-60
2023/04/22 04:13:01;;;;;;;;;;;18.50;52.10;;;;;;4972232;28;46160;-60
2023/04/22 04:15:26;;;;;;;;;;;18.50;52.10;;;;;;4966011;28;45228;-60
2023/04/22 04:17:52;;;;;;;;;;;18.50;52.10;;;;;;4968446;28;45023;-62
2023/04/22 04:20:17;;;;;;;;;;;18.50;52.10;;;;;;4968886;28;44894;-62
2023/04/22 04:22:43;;;;;;;;;;;18.50;52.20;;;;;;4958741;28;46052;-63
2023/04/22 04:25:09;;;;;;;;;;;18.50;52.20;;;;;;4967805;28;44680;-60
2023/04/22 04:27:35;;;;;;;;;;;18.50;52.20;;;;;;4973152;28;45886;-63
2023/04/22 04:30:03;;;;;;;;;;;18.50;52.20;;;;;;4971012;28;45285;-63
2023/04/22 04:32:28;;;;;;;;;;;18.50;52.20;;;;;;4980885;28;48146;-63
2023/04/22 04:34:54;;;;;;;;;;;18.50;52.20;;;;;;4970998;28;45513;-60
2023/04/22 04:37:21;;;;;;;;;;;18.50;52.20;;;;;;4968234;28;45254;-62
2023/04/22 04:39:47;;;;;;;;;;;18.50;52.30;;;;;;4973040;28;45201;-62
2023/04/22 04:42:13;;;;;;;;;;;18.50;52.30;;;;;;4968863;28;45152;-62
2023/04/22 04:44:38;;;;;;;;;;;18.50;52.30;;;;;;4972540;28;45369;-62
2023/04/22 04:47:05;;;;;;;;;;;18.40;52.20;;;;;;4966026;28;45460;-62
2023/04/22 04:49:31;;;;;;;;;;;18.50;52.30;;;;;;4972970;28;45352;-63
2023/04/22 04:51:56;;;;;;;;;;;18.50;52.30;;;;;;4971702;28;45229;-63
2023/04/22 04:54:22;;;;;;;;;;;18.50;52.30;;;;;;4969861;28;45196;-62
2023/04/22 04:56:47;;;;;;;;;;;18.50;52.30;;;;;;4967142;28;45235;-62
2023/04/22 04:59:13;;;;;;;;;;;18.40;52.20;;;;;;4976304;28;45398;-63
2023/04/22 05:01:38;;;;;;;;;;;18.40;52.30;;;;;;4968428;28;45302;-63
2023/04/22 05:04:04;;;;;;;;;;;18.50;52.30;;;;;;4973348;28;44901;-62
2023/04/22 05:06:31;;;;;;;;;;;18.40;52.20;;;;;;4965940;28;45206;-62
2023/04/22 05:08:57;;;;;;;;;;;18.40;52.20;;;;;;4969768;28;44720;-63
2023/04/22 05:11:22;;;;;;;;;;;18.40;52.20;;;;;;4965143;28;45838;-62
2023/04/22 05:13:48;;;;;;;;;;;18.40;52.20;;;;;;4975248;28;45258;-60
2023/04/22 05:16:13;;;;;;;;;;;18.40;52.20;;;;;;4963623;28;45121;-62
2023/04/22 05:18:39;;;;;;;;;;;18.40;52.20;;;;;;4972508;28;45305;-62
2023/04/22 05:21:05;;;;;;;;;;;18.40;52.20;;;;;;4967470;28;45264;-61
2023/04/22 05:23:30;;;;;;;;;;;18.50;52.30;;;;;;4976131;28;44633;-61
2023/04/22 05:25:56;;;;;;;;;;;18.50;52.10;;;;;;4970260;28;45341;-62
2023/04/22 05:28:21;;;;;;;;;;;18.60;51.60;;;;;;4972539;28;45708;-63
2023/04/22 05:30:47;;;;;;;;;;;18.80;51.20;;;;;;4965383;28;45335;-62
2023/04/22 05:33:12;;;;;;;;;;;18.90;50.90;;;;;;4975994;28;45378;-61
2023/04/22 05:35:38;;;;;;;;;;;19.10;50.50;;;;;;4968826;28;46492;-61
2023/04/22 05:38:03;;;;;;;;;;;19.30;50.00;;;;;;4967841;28;44848;-58
2023/04/22 05:40:29;;;;;;;;;;;19.40;49.80;;;;;;4965772;28;46008;-60
2023/04/22 05:42:55;;;;;;;;;;;19.20;50.20;;;;;;4969183;28;45151;-60
2023/04/22 05:45:21;;;;;;;;;;;19.00;50.60;;;;;;4967303;28;45067;-60
2023/04/22 05:47:46;;;;;;;;;;;18.90;50.90;;;;;;4967763;28;45244;-60
2023/04/22 05:50:12;;;;;;;;;;;18.80;51.10;;;;;;4968744;28;46116;-58
2023/04/22 05:52:38;;;;;;;;;;;18.80;51.30;;;;;;4956082;28;45476;-62
2023/04/22 05:55:03;;;;;;;;;;;18.80;51.40;;;;;;4968909;28;45399;-60
2023/04/22 05:57:30;;;;;;;;;;;18.80;51.40;;;;;;4968259;28;44700;-62
2023/04/22 05:59:55;;;;;;;;;;;18.70;51.40;;;;;;4971218;28;46054;-61
2023/04/22 06:02:21;;;;;;;;;;;18.80;51.50;;;;;;4960081;28;45297;-63
2023/04/22 06:04:46;;;;;;;;;;;18.80;51.40;;;;;;4968039;28;45300;-61
2023/04/22 06:07:12;;;;;;;;;;;18.90;51.30;;;;;;4965220;28;44777;-62
2023/04/22 06:09:37;;;;;;;;;;;19.10;50.70;;;;;;4966666;28;47012;-63
2023/04/22 06:12:03;;;;;;;;;;;19.80;48.80;;;;;;4966447;28;45177;-60
2023/04/22 06:14:28;;;;;;;;;;;20.60;47.20;;;;;;4972622;28;45263;-62
2023/04/22 06:16:54;;;;;;;;;;;21.20;45.80;;;;;;4966590;28;45605;-63
2023/04/22 06:19:19;;;;;;;;;;;21.60;44.60;;;;;;4973454;28;46036;-61
2023/04/22 06:21:45;;;;;;;;;;;21.90;43.90;;;;;;4972242;28;45239;-62
2023/04/22 06:24:10;;;;;;;;;;;22.10;43.30;;;;;;4972066;28;44694;-62
2023/04/22 06:26:36;;;;;;;;;;;22.40;42.90;;;;;;4969612;28;46241;-63
2023/04/22 06:29:04;;;;;;;;;;;22.50;42.60;;;;;;4971153;28;47137;-60
2023/04/22 06:31:32;;;;;;;;;;;22.40;42.90;;;;;;4965142;28;45163;-58
2023/04/22 06:33:58;;;;;;;;;;;21.50;44.50;;;;;;4970584;28;45247;-61
2023/04/22 06:36:24;;;;;;;;;;;20.70;46.30;;;;;;4966992;28;45860;-60
2023/04/22 06:38:49;;;;;;;;;;;20.40;47.50;;;;;;4971942;28;46031;-60
2023/04/22 06:41:15;;;;;;;;;;;20.10;48.30;;;;;;4966205;28;45388;-62
2023/04/22 06:43:41;;;;;;;;;;;19.90;48.70;;;;;;4975907;28;45328;-61
2023/04/22 06:46:06;;;;;;;;;;;19.80;49.00;;;;;;4965161;28;45310;-61
2023/04/22 06:48:31;;;;;;;;;;;19.70;49.20;;;;;;4970329;28;46186;-63
2023/04/22 06:50:57;;;;;;;;;;;19.70;49.30;;;;;;4968728;28;45100;-63
2023/04/22 06:53:22;;;;;;;;;;;19.60;49.40;;;;;;4973777;28;45661;-62
2023/04/22 06:55:49;;;;;;;;;;;19.60;49.50;;;;;;4968724;28;45838;-60
2023/04/22 06:58:14;;;;;;;;;;;19.60;49.60;;;;;;4976379;28;45604;-62
2023/04/22 07:00:40;;;;;;;;;;;19.60;49.70;;;;;;4964697;28;46274;-60
2023/04/22 07:03:05;;;;;;;;;;;19.50;49.70;;;;;;4968420;28;44993;-62
2023/04/22 07:05:31;;;;;;;;;;;19.50;49.80;;;;;;4968584;28;45092;-61
2023/04/22 07:07:56;;;;;;;;;;;19.40;49.90;;;;;;4971146;28;46054;-60
2023/04/22 07:10:22;;;;;;;;;;;19.40;50.00;;;;;;4965534;28;45292;-60
2023/04/22 07:12:47;;;;;;;;;;;19.40;50.10;;;;;;4973539;28;45538;-60
2023/04/22 07:15:13;;;;;;;;;;;19.40;50.10;;;;;;4961832;28;45764;-58
2023/04/22 07:17:38;;;;;;;;;;;19.40;50.20;;;;;;4969523;28;46199;-60
2023/04/22 07:20:04;;;;;;;;;;;19.30;50.20;;;;;;4964837;28;45095;-59
2023/04/22 07:22:30;;;;;;;;;;;19.40;50.30;;;;;;4969306;28;45818;-60
2023/04/22 07:24:55;;;;;;;;;;;19.30;50.20;;;;;;4972560;28;45787;-59
2023/04/22 07:27:20;;;;;;;;;;;19.40;50.30;;;;;;4964261;28;45210;-61
2023/04/22 07:29:46;;;;;;;;;;;19.40;50.30;;;;;;4972727;28;45163;-61
2023/04/22 07:32:11;;;;;;;;;;;19.40;50.30;;;;;;4964158;28;45442;-59
2023/04/22 07:34:37;;;;;;;;;;;19.40;50.30;;;;;;4969703;28;45871;-60
2023/04/22 07:37:03;;;;;;;;;;;19.40;50.30;;;;;;4970873;28;46274;-60
2023/04/22 07:39:29;;;;;;;;;;;19.40;50.30;;;;;;4971785;28;45696;-61
2023/04/22 07:41:56;;;;;;;;;;;19.40;50.30;;;;;;4963663;28;45322;-57
2023/04/22 07:44:22;;;;;;;;;;;19.40;50.30;;;;;;4971448;28;45061;-62
2023/04/22 07:46:47;;;;;;;;;;;19.40;50.30;;;;;;4962949;28;46062;-62
2023/04/22 07:49:13;;;;;;;;;;;19.40;50.30;;;;;;4970547;28;45595;-63
2023/04/22 07:51:39;;;;;;;;;;;19.40;50.30;;;;;;4966644;28;45010;-58
2023/04/22 07:54:05;;;;;;;;;;;19.40;50.30;;;;;;4969976;28;44948;-60
2023/04/22 07:56:30;;;;;;;;;;;19.40;50.30;;;;;;4965354;28;46017;-60
2023/04/22 07:58:55;;;;;;;;;;;19.40;50.30;;;;;;4973083;28;45555;-60
2023/04/22 08:01:21;;;;;;;;;;;19.50;50.30;;;;;;4961170;28;45453;-60
2023/04/22 08:03:46;;;;;;;;;;;19.50;50.30;;;;;;4965504;28;45282;-61
2023/04/22 08:06:12;;;;;;;;;;;19.50;50.30;;;;;;4967234;28;45278;-60
2023/04/22 08:08:37;;;;;;;;;;;19.50;50.30;;;;;;4968948;28;44662;-60
2023/04/22 08:11:03;;;;;;;;;;;19.50;50.30;;;;;;4963335;28;45695;-57
2023/04/22 08:13:29;;;;;;;;;;;19.50;50.30;;;;;;4967481;28;45287;-61
2023/04/22 08:15:54;;;;;;;;;;;19.50;50.30;;;;;;4965546;28;46241;-61
2023/04/22 08:18:20;;;;;;;;;;;19.50;50.20;;;;;;4972079;28;45150;-63
2023/04/22 08:20:46;;;;;;;;;;;19.50;50.20;;;;;;4968686;28;45490;-63
2023/04/22 08:23:11;;;;;;;;;;;19.50;50.20;;;;;;4971398;28;45296;-63
2023/04/22 08:25:37;;;;;;;;;;;19.50;50.20;;;;;;4967225;28;45540;-63
2023/04/22 08:28:02;;;;;;;;;;;19.60;50.20;;;;;;4966196;28;45579;-62
2023/04/22 08:30:28;;;;;;;;;;;19.60;50.30;;;;;;4967559;28;45998;-62
2023/04/22 08:32:53;;;;;;;;;;;19.60;50.20;;;;;;4970824;28;45442;-60
2023/04/22 08:35:19;;;;;;;;;;;19.60;50.20;;;;;;4960553;28;47041;-61
2023/04/22 08:37:44;;;;;;;;;;;19.60;50.20;;;;;;4969117;28;45249;-62
2023/04/22 08:40:10;;;;;;;;;;;19.60;50.20;;;;;;4968094;28;45352;-63
2023/04/22 08:42:36;;;;;;;;;;;19.60;50.20;;;;;;4967733;28;45876;-61
2023/04/22 08:45:02;;;;;;;;;;;19.60;50.20;;;;;;4971515;28;46879;-60
2023/04/22 08:47:27;;;;;;;;;;;19.60;50.20;;;;;;4978651;28;44648;-59
2023/04/22 08:49:53;;;;;;;;;;;19.60;50.20;;;;;;4974946;28;45383;-60
2023/04/22 08:52:20;;;;;;;;;;;19.70;50.20;;;;;;4965464;28;45175;-61
2023/04/22 08:54:45;;;;;;;;;;;19.70;50.20;;;;;;4971925;28;45015;-60
2023/04/22 08:57:11;;;;;;;;;;;19.70;50.20;;;;;;4964240;28;45221;-60
2023/04/22 08:59:37;;;;;;;;;;;19.70;50.20;;;;;;4974891;28;45082;-59
2023/04/22 09:02:02;;;;;;;;;;;19.70;50.20;;;;;;4961977;28;45375;-60
2023/04/22 09:04:28;;;;;;;;;;;19.70;50.20;;;;;;4968128;28;46003;-59
2023/04/22 09:06:53;;;;;;;;;;;19.70;50.20;;;;;;4951193;28;45406;-61
2023/04/22 09:09:19;;;;;;;;;;;19.70;50.20;;;;;;4968964;28;45745;-59
2023/04/22 09:11:44;;;;;;;;;;;19.70;50.20;;;;;;4964107;28;45240;-60
2023/04/22 09:14:10;;;;;;;;;;;19.70;50.20;;;;;;4968749;28;45574;-60
2023/04/22 09:16:45;;;;;;;;;;;19.70;50.20;;;;;;4963306;28;45202;-60
2023/04/22 09:19:11;;;;;;;;;;;19.70;50.20;;;;;;4968797;28;45335;-61
2023/04/22 09:21:38;;;;;;;;;;;19.70;50.30;;;;;;4967783;28;45175;-63
2023/04/22 09:24:05;;;;;;;;;;;19.70;50.30;;;;;;4970579;28;46917;-61
2023/04/22 09:26:30;;;;;;;;;;;19.70;50.30;;;;;;4966395;28;45923;-62
2023/04/22 09:28:57;;;;;;;;;;;19.70;50.30;;;;;;4973606;28;44703;-62
2023/04/22 09:31:23;;;;;;;;;;;19.70;50.30;;;;;;4958009;28;45648;-62
2023/04/22 09:33:49;;;;;;;;;;;19.80;50.40;;;;;;4970198;28;45825;-60
2023/04/22 09:36:15;;;;;;;;;;;19.80;50.30;;;;;;4966329;28;44781;-61
2023/04/22 09:38:44;;;;;;;;;;;19.80;50.30;;;;;;4972014;28;45299;-58
2023/04/22 09:41:11;;;;;;;;;;;19.80;50.40;;;;;;4958935;28;45583;-63
2023/04/22 09:43:36;;;;;;;;;;;19.80;50.40;;;;;;4970803;28;45398;-63
2023/04/22 09:46:02;;;;;;;;;;;19.70;50.40;;;;;;4965408;28;45821;-61
2023/04/22 09:48:27;;;;;;;;;;;19.80;50.40;;;;;;4969510;28;45248;-63
2023/04/22 09:50:53;;;;;;;;;;;19.80;50.40;;;;;;4964246;28;45717;-62
2023/04/22 09:53:19;;;;;;;;;;;19.80;50.40;;;;;;4970069;28;46194;-62
2023/04/22 09:55:45;;;;;;;;;;;19.80;50.40;;;;;;4966157;28;45250;-63
2023/04/22 09:58:11;;;;;;;;;;;19.80;50.30;;;;;;4967114;28;44657;-63
2023/04/22 10:00:56;;;;;;;;;;;19.80;50.30;;;;;;4958488;28;45386;-63
2023/04/22 10:03:21;;;;;;;;;;;19.80;50.30;;;;;;4964240;28;45895;-63
2023/04/22 10:05:47;;;;;;;;;;;19.80;50.30;;;;;;4967276;28;45156;-63
2023/04/22 10:08:13;;;;;;;;;;;19.80;50.30;;;;;;4969130;28;45504;-61
2023/04/22 10:10:38;;;;;;;;;;;19.90;50.40;;;;;;4965132;28;45385;-62
2023/04/22 10:13:04;;;;;;;;;;;19.90;50.40;;;;;;4969268;28;45604;-63
2023/04/22 10:15:39;;;;;;;;;;;19.90;50.40;;;;;;4959682;28;44762;-63
2023/04/22 10:18:05;;;;;;;;;;;19.90;50.40;;;;;;4968878;28;44757;-62
2023/04/22 10:20:31;;;;;;;;;;;19.90;50.40;;;;;;4962051;28;44838;-62
2023/04/22 10:22:56;;;;;;;;;;;19.90;50.40;;;;;;4968337;28;45523;-63
2023/04/22 10:25:25;;;;;;;;;;;19.90;50.40;;;;;;4962668;28;45499;-62
2023/04/22 10:27:51;;;;;;;;;;;19.90;50.40;;;;;;4966122;28;44649;-62
2023/04/22 10:30:25;;;;;;;;;;;19.90;50.30;;;;;;4961439;28;45460;-61
2023/04/22 10:32:50;;;;;;;;;;;19.90;50.30;;;;;;4964431;28;45403;-60
2023/04/22 10:35:16;;;;;;;;;;;20.00;50.30;;;;;;4961401;28;46032;-60
2023/04/22 10:37:42;;;;;;;;;;;20.00;50.30;;;;;;4968727;28;44993;-60
2023/04/22 10:40:11;;;;;;;;;;;20.00;50.30;;;;;;4962141;28;45643;-59
2023/04/22 10:42:40;;;;;;;;;;;20.00;50.30;;;;;;4969842;28;45262;-61
2023/04/22 10:45:06;;;;;;;;;;;19.90;50.30;;;;;;4965338;28;45449;-59
2023/04/22 10:47:35;;;;;;;;;;;20.00;50.30;;;;;;4966825;28;44791;-62
2023/04/22 10:50:10;;;;;;;;;;;20.00;50.30;;;;;;4971355;28;45317;-61
2023/04/22 10:52:35;;;;;;;;;;;20.00;50.30;;;;;;4968791;28;46014;-61
2023/04/22 10:55:02;;;;;;;;;;;20.00;50.30;;;;;;4969911;28;45617;-62
2023/04/22 10:57:32;;;;;;;;;;;20.00;50.30;;;;;;4961510;28;45339;-61
2023/04/22 10:59:59;;;;;;;;;;;20.00;50.30;;;;;;4973957;28;45238;-62
2023/04/22 11:02:24;;;;;;;;;;;20.10;50.30;;;;;;4966447;28;47162;-62
2023/04/22 11:04:53;;;;;;;;;;;20.00;50.30;;;;;;4974489;28;45229;-62
2023/04/22 11:07:25;;;;;;;;;;;20.10;50.40;;;;;;4972154;28;45546;-61
2023/04/22 11:10:06;;;;;;;;;;;20.10;50.40;;;;;;4972321;28;45151;-60
2023/04/22 11:12:34;;;;;;;;;;;20.10;50.40;;;;;;4960939;28;45298;-62
2023/04/22 11:15:00;;;;;;;;;;;20.10;49.70;;;;;;4957824;28;45582;-62
2023/04/22 11:17:26;;;;;;;;;;;20.20;49.10;;;;;;4970327;28;45154;-61
2023/04/22 11:19:55;;;;;;;;;;;20.30;48.50;;;;;;4971456;28;45338;-62
2023/04/22 11:22:23;;;;;;;;;;;20.30;47.60;;;;;;4971193;28;45209;-60
2023/04/22 11:24:55;;;;;;;;;;;20.40;47.20;;;;;;4974828;28;45292;-61
2023/04/22 11:27:25;;;;;;;;;;;20.40;46.00;;;;;;4973258;28;45165;-60
2023/04/22 11:30:00;;;;;;;;;;;20.50;45.30;;;;;;4977302;28;44710;-62
2023/04/22 11:32:26;;;;;;;;;;;20.50;45.00;;;;;;4952637;28;45889;-61
2023/04/22 11:34:51;;;;;;;;;;;20.60;44.50;;;;;;4975285;28;45307;-61
2023/04/22 11:37:20;;;;;;;;;;;20.60;44.20;;;;;;4956108;28;45144;-59
2023/04/22 11:39:46;;;;;;;;;;;20.70;44.10;;;;;;4976489;28;45281;-61
2023/04/22 11:42:11;;;;;;;;;;;20.70;44.20;;;;;;4967228;28;45537;-59
2023/04/22 11:44:37;;;;;;;;;;;20.70;43.80;;;;;;4968200;28;45266;-60
2023/04/22 11:47:03;;;;;;;;;;;20.80;43.90;;;;;;4966652;28;45299;-61
2023/04/22 11:49:31;;;;;;;;;;;20.80;43.70;;;;;;4974122;28;44702;-59
2023/04/22 11:51:57;;;;;;;;;;;20.80;43.70;;;;;;4969465;28;46036;-62
2023/04/22 11:54:35;;;;;;;;;;;20.80;43.50;;;;;;4957399;28;45068;-61
2023/04/22 11:57:01;;;;;;;;;;;20.90;43.50;;;;;;4970721;28;45787;-61
2023/04/22 11:59:27;;;;;;;;;;;20.90;43.20;;;;;;4977118;28;45494;-62
2023/04/22 12:01:53;;;;;;;;;;;20.90;43.00;;;;;;4952186;28;45985;-61
2023/04/22 12:04:21;;;;;;;;;;;21.00;43.00;;;;;;4948994;28;45503;-61
2023/04/22 12:06:48;;;;;;;;;;;21.00;43.00;;;;;;4925834;28;45025;-62
2023/04/22 12:09:13;;;;;;;;;;;21.00;42.90;;;;;;4947389;28;46065;-62
2023/04/22 12:11:39;;;;;;;;;;;21.00;42.80;;;;;;4923556;28;46143;-60
2023/04/22 12:14:04;;;;;;;;;;;21.10;42.60;;;;;;4955356;28;45233;-61
2023/04/22 12:16:37;;;;;;;;;;;21.10;42.60;;;;;;4926128;28;45228;-62
2023/04/22 12:19:03;;;;;;;;;;;21.10;42.50;;;;;;4948831;28;45396;-61
2023/04/22 12:21:28;;;;;;;;;;;21.10;42.40;;;;;;4947905;28;45194;-62
2023/04/22 12:23:56;;;;;;;;;;;21.10;42.60;;;;;;4953151;28;45628;-62
2023/04/22 12:26:23;;;;;;;;;;;21.10;42.80;;;;;;4946837;28;45354;-62
2023/04/22 12:28:48;;;;;;;;;;;21.10;42.90;;;;;;4932482;28;44697;-62
2023/04/22 12:31:14;;;;;;;;;;;21.20;42.90;;;;;;4940216;28;46178;-62
2023/04/22 12:33:39;;;;;;;;;;;21.20;42.60;;;;;;4931949;28;45499;-62
2023/04/22 12:36:05;;;;;;;;;;;21.20;42.50;;;;;;4946281;28;45299;-62
2023/04/22 12:38:31;;;;;;;;;;;21.20;42.50;;;;;;4934914;28;45341;-62
2023/04/22 12:40:56;;;;;;;;;;;21.20;42.40;;;;;;4948174;28;46351;-62
2023/04/22 12:43:22;;;;;;;;;;;21.20;42.50;;;;;;4957595;28;45283;-62
2023/04/22 12:45:47;;;;;;;;;;;21.30;43.30;;;;;;4943168;28;46020;-62
2023/04/22 12:48:13;;;;;;;;;;;21.30;42.80;;;;;;4953413;28;47090;-60
2023/04/22 12:50:39;;;;;;;;;;;21.30;43.00;;;;;;4946003;28;45325;-62
2023/04/22 12:53:04;;;;;;;;;;;21.30;43.20;;;;;;4952722;28;45315;-62
2023/04/22 12:55:30;;;;;;;;;;;21.30;43.20;;;;;;4943142;28;45227;-62
2023/04/22 12:57:55;;;;;;;;;;;21.30;43.20;;;;;;4930629;28;45121;-61
2023/04/22 13:00:21;;;;;;;;;;;21.30;43.10;;;;;;4926002;28;45958;-62
2023/04/22 13:02:47;;;;;;;;;;;21.30;43.00;;;;;;4968115;28;45270;-62
2023/04/22 13:05:12;;;;;;;;;;;21.30;43.10;;;;;;4967365;28;45932;-58
2023/04/22 13:07:40;;;;;;;;;;;21.30;43.00;;;;;;4972926;28;45325;-61
2023/04/22 13:10:06;;;;;;;;;;;21.30;43.00;;;;;;4958219;28;47646;-61
2023/04/22 13:12:32;;;;;;;;;;;21.30;42.90;;;;;;4964585;28;47366;-61
2023/04/22 13:14:57;;;;;;;;;;;21.30;42.80;;;;;;4972229;28;45274;-62
2023/04/22 13:17:23;;;;;;;;;;;21.40;43.00;;;;;;4964456;28;45367;-62
2023/04/22 13:19:49;;;;;;;;;;;21.40;43.10;;;;;;4973232;28;45396;-62
2023/04/22 13:22:15;;;;;;;;;;;21.50;43.00;;;;;;4966844;28;45415;-61
2023/04/22 13:24:41;;;;;;;;;;;21.50;43.00;;;;;;4973103;28;45612;-62
2023/04/22 13:27:06;;;;;;;;;;;21.50;43.10;;;;;;4964255;28;45334;-61
2023/04/22 13:29:32;;;;;;;;;;;21.40;43.10;;;;;;4971692;28;45133;-62
2023/04/22 13:31:57;;;;;;;;;;;21.50;43.20;;;;;;4965031;28;45525;-62
2023/04/22 13:34:23;;;;;;;;;;;21.50;43.10;;;;;;4971590;28;45565;-62
2023/04/22 13:36:48;;;;;;;;;;;21.50;42.90;;;;;;4968045;28;45050;-62
2023/04/22 13:39:14;;;;;;;;;;;21.50;42.80;;;;;;4969072;28;45156;-62
2023/04/22 13:41:40;;;;;;;;;;;21.50;42.70;;;;;;4965536;28;44984;-62
2023/04/22 13:44:05;;;;;;;;;;;21.50;42.60;;;;;;4975121;28;45329;-62
2023/04/22 13:46:31;;;;;;;;;;;21.60;42.40;;;;;;4963572;28;45209;-62
2023/04/22 13:48:57;;;;;;;;;;;21.60;42.40;;;;;;4969556;28;45473;-62
2023/04/22 13:51:23;;;;;;;;;;;21.60;42.30;;;;;;4966038;28;45391;-62
2023/04/22 13:53:48;;;;;;;;;;;21.70;42.30;;;;;;4969688;28;46074;-62
2023/04/22 13:56:14;;;;;;;;;;;21.70;42.20;;;;;;4963024;28;46117;-63
2023/04/22 13:58:58;;;;;;;;;;;21.70;41.40;;;;;;4966130;28;45964;-63
2023/04/22 14:01:43;;;;;;;;;;;21.70;41.30;;;;;;4959929;28;45903;-61
2023/04/22 14:04:08;;;;;;;;;;;21.70;41.30;;;;;;4971944;28;45459;-62
2023/04/22 14:06:34;;;;;;;;;;;21.70;41.50;;;;;;4969463;28;45253;-62
2023/04/22 14:09:00;;;;;;;;;;;21.80;41.40;;;;;;4970171;28;44909;-62
2023/04/22 14:11:25;;;;;;;;;;;21.80;41.30;;;;;;4967729;28;45472;-62
2023/04/22 14:13:51;;;;;;;;;;;21.70;41.20;;;;;;4970424;28;45261;-62
2023/04/22 14:16:17;;;;;;;;;;;21.70;40.70;;;;;;4962252;28;46390;-63
2023/04/22 14:18:44;;;;;;;;;;;21.70;40.70;;;;;;4967538;28;45956;-63
2023/04/22 14:21:10;;;;;;;;;;;21.70;40.60;;;;;;4969183;28;45406;-63
2023/04/22 14:23:36;;;;;;;;;;;21.80;40.50;;;;;;4976018;28;45140;-62
2023/04/22 14:26:01;;;;;;;;;;;21.80;40.80;;;;;;4957311;28;45639;-62
2023/04/22 14:28:27;;;;;;;;;;;21.80;41.00;;;;;;4969999;28;45646;-63
2023/04/22 14:30:52;;;;;;;;;;;21.80;41.00;;;;;;4963639;28;45318;-60
2023/04/22 14:33:18;;;;;;;;;;;21.80;41.00;;;;;;4972382;28;45274;-61
2023/04/22 14:35:44;;;;;;;;;;;21.80;41.10;;;;;;4973365;28;45804;-62
2023/04/22 14:38:09;;;;;;;;;;;21.80;41.00;;;;;;4972607;28;47053;-62
2023/04/22 14:40:35;;;;;;;;;;;21.80;41.10;;;;;;4967500;28;45081;-62
2023/04/22 14:43:01;;;;;;;;;;;21.80;41.00;;;;;;4977709;28;45286;-62
2023/04/22 14:45:27;;;;;;;;;;;21.80;40.80;;;;;;4966119;28;45236;-58
2023/04/22 14:47:52;;;;;;;;;;;21.80;40.90;;;;;;4988899;28;45322;-61
2023/04/22 14:50:19;;;;;;;;;;;21.80;41.00;;;;;;4968156;28;45346;-58
2023/04/22 14:52:44;;;;;;;;;;;21.80;41.10;;;;;;4978707;28;45485;-62
2023/04/22 14:55:10;;;;;;;;;;;21.90;41.20;;;;;;4973806;28;45297;-60
2023/04/22 14:57:35;;;;;;;;;;;21.90;41.30;;;;;;4966476;28;45759;-62
2023/04/22 15:00:01;;;;;;;;;;;21.90;41.70;;;;;;4972840;28;45249;-62
2023/04/22 15:02:26;;;;;;;;;;;21.90;40.90;;;;;;4963725;28;44939;-62
2023/04/22 15:04:52;;;;;;;;;;;21.90;40.80;;;;;;4970853;28;44777;-61
2023/04/22 15:07:17;;;;;;;;;;;21.90;40.70;;;;;;4961723;28;45552;-62
2023/04/22 15:09:43;;;;;;;;;;;21.90;41.00;;;;;;4967675;28;45071;-61
2023/04/22 15:12:08;;;;;;;;;;;21.90;41.10;;;;;;4963936;28;45284;-60
2023/04/22 15:14:34;;;;;;;;;;;21.90;41.00;;;;;;4969689;28;45728;-61
2023/04/22 15:17:00;;;;;;;;;;;21.90;41.00;;;;;;4964661;28;46018;-62
2023/04/22 15:19:25;;;;;;;;;;;21.90;40.90;;;;;;4967776;28;45064;-61
2023/04/22 15:21:51;;;;;;;;;;;21.90;40.50;;;;;;4964205;28;45425;-63
2023/04/22 15:24:18;;;;;;;;;;;21.90;40.60;;;;;;4971100;28;45435;-62
2023/04/22 15:26:44;;;;;;;;;;;21.90;40.40;;;;;;4963676;28;45835;-62
2023/04/22 15:29:10;;;;;;;;;;;21.90;40.10;;;;;;4972427;28;45814;-62
2023/04/22 15:31:35;;;;;;;;;;;21.90;40.00;;;;;;4961064;28;44956;-60
2023/04/22 15:34:01;;;;;;;;;;;21.90;40.10;;;;;;4967661;28;45883;-62
2023/04/22 15:36:26;;;;;;;;;;;21.90;40.00;;;;;;4963665;28;45989;-62
2023/04/22 15:38:52;;;;;;;;;;;21.90;40.00;;;;;;4971239;28;45875;-62
2023/04/22 15:41:18;;;;;;;;;;;21.90;40.00;;;;;;4966055;28;45376;-62
2023/04/22 15:43:43;;;;;;;;;;;21.90;40.20;;;;;;4970138;28;45267;-61
2023/04/22 15:46:09;;;;;;;;;;;21.90;40.30;;;;;;4961205;28;45017;-61
2023/04/22 15:48:34;;;;;;;;;;;21.80;40.20;;;;;;4969010;28;44754;-62
2023/04/22 15:51:00;;;;;;;;;;;21.80;40.30;;;;;;4965783;28;44749;-61
2023/04/22 15:53:25;;;;;;;;;;;21.80;40.40;;;;;;4970479;28;45657;-62
2023/04/22 15:55:51;;;;;;;;;;;21.80;40.30;;;;;;4963659;28;47267;-62
2023/04/22 15:58:16;;;;;;;;;;;21.80;40.30;;;;;;4966378;28;45293;-61
2023/04/22 16:00:42;;;;;;;;;;;21.80;40.30;;;;;;4962826;28;45999;-61
2023/04/22 16:03:07;;;;;;;;;;;21.80;40.40;;;;;;4968134;28;45274;-62
2023/04/22 16:05:33;;;;;;;;;;;21.80;40.40;;;;;;4960002;28;46199;-61
2023/04/22 16:07:59;;;;;;;;;;;21.70;40.30;;;;;;4966603;28;45383;-61
2023/04/22 16:10:25;;;;;;;;;;;21.70;40.40;;;;;;4960787;28;45311;-60
2023/04/22 16:12:51;;;;;;;;;;;21.70;40.50;;;;;;4962754;28;46337;-61
2023/04/22 16:15:16;;;;;;;;;;;21.70;40.40;;;;;;4961341;28;46257;-62
2023/04/22 16:17:42;;;;;;;;;;;21.70;40.60;;;;;;4962734;28;45306;-63
2023/04/22 16:20:08;;;;;;;;;;;21.70;40.40;;;;;;4958337;28;45251;-62
2023/04/22 16:22:34;;;;;;;;;;;21.70;40.60;;;;;;4962864;28;45273;-62
2023/04/22 16:24:59;;;;;;;;;;;21.70;40.70;;;;;;4964131;28;45473;-59
2023/04/22 16:27:25;;;;;;;;;;;21.70;40.40;;;;;;4955221;28;45716;-60
2023/04/22 16:29:50;;;;;;;;;;;21.70;40.60;;;;;;4958843;28;45815;-62
2023/04/22 16:32:15;;;;;;;;;;;21.70;40.80;;;;;;4951713;28;45245;-60
2023/04/22 16:34:41;;;;;;;;;;;21.70;40.40;;;;;;4958422;28;46036;-61
2023/04/22 16:37:06;;;;;;;;;;;21.60;40.50;;;;;;4956322;28;46029;-61
2023/04/22 16:39:32;;;;;;;;;;;21.60;40.40;;;;;;4965410;28;45243;-62
2023/04/22 16:41:57;;;;;;;;;;;21.70;40.60;;;;;;4963152;28;45461;-62
2023/04/22 16:44:23;;;;;;;;;;;21.60;40.60;;;;;;4972124;28;46112;-62
2023/04/22 16:46:48;;;;;;;;;;;21.60;40.50;;;;;;4964957;28;45776;-62
2023/04/22 16:49:14;;;;;;;;;;;21.60;40.80;;;;;;4968291;28;45052;-62
2023/04/22 16:51:39;;;;;;;;;;;21.60;40.40;;;;;;4959293;28;46490;-63
2023/04/22 16:54:06;;;;;;;;;;;21.60;40.50;;;;;;4966826;28;48437;-61
2023/04/22 16:56:31;;;;;;;;;;;21.60;40.40;;;;;;4960963;28;45317;-60
2023/04/22 16:58:57;;;;;;;;;;;21.60;40.70;;;;;;4970041;28;45314;-61
2023/04/22 17:01:25;;;;;;;;;;;21.60;40.80;;;;;;4958124;28;45511;-61
2023/04/22 17:03:51;;;;;;;;;;;21.60;41.00;;;;;;4964079;28;45250;-61
2023/04/22 17:06:16;;;;;;;;;;;21.50;40.90;;;;;;4959589;28;45694;-61
2023/04/22 17:08:42;;;;;;;;;;;21.50;41.00;;;;;;4964128;28;45444;-60